createdAt,value
2023-10-29T00:00:31.821Z,99520.59
2023-10-29T00:01:34.127Z,99513.63
2023-10-29T00:02:36.758Z,99516.28
2023-10-29T00:03:39.187Z,99506.78
2023-10-29T00:04:41.579Z,99510.66
2023-10-29T00:05:44.502Z,99505.31
2023-10-29T00:06:46.802Z,99499.97
2023-10-29T00:07:50.225Z,99507.38
2023-10-29T00:08:52.623Z,99498.47
2023-10-29T00:09:55.134Z,99504.38
2023-10-29T00:10:57.538Z,99498.84
2023-10-29T00:11:59.837Z,99491.66
2023-10-29T00:13:03.365Z,99496.94
2023-10-29T00:14:05.840Z,99496.16
2023-10-29T00:15:08.415Z,99490.03
2023-10-29T00:16:12.572Z,99487.56
2023-10-29T00:17:15.245Z,99490.03
2023-10-29T00:18:19.277Z,99492.91
2023-10-29T00:19:21.882Z,99497.28
2023-10-29T00:20:24.137Z,99489.19
2023-10-29T00:21:26.565Z,99496.16
2023-10-29T00:22:29.168Z,99491.84
2023-10-29T00:23:31.440Z,99488.31
2023-10-29T00:24:34.083Z,99486.50
2023-10-29T00:25:36.310Z,99483.66
2023-10-29T00:26:38.593Z,99487.56
2023-10-29T00:27:41.271Z,99484.00
2023-10-29T00:28:43.488Z,99495.47
2023-10-29T00:29:47.914Z,99492.91
2023-10-29T00:30:50.325Z,99492.78
2023-10-29T00:31:52.789Z,99491.16
2023-10-29T00:32:55.462Z,99484.41
2023-10-29T00:33:57.753Z,99479.06
2023-10-29T00:35:00.277Z,99478.19
2023-10-29T00:36:02.865Z,99482.78
2023-10-29T00:37:05.454Z,99479.94
2023-10-29T00:38:08.482Z,99469.31
2023-10-29T00:39:10.751Z,99472.75
2023-10-29T00:40:13.055Z,99478.16
2023-10-29T00:41:15.509Z,99475.34
2023-10-29T00:42:17.890Z,99474.66
2023-10-29T00:43:20.365Z,99472.19
2023-10-29T00:44:23.391Z,99465.28
2023-10-29T00:45:25.662Z,99470.53
2023-10-29T00:46:28.464Z,99467.06
2023-10-29T00:47:31.083Z,99468.81
2023-10-29T00:48:34.353Z,99471.56
2023-10-29T00:49:37.443Z,99475.88
2023-10-29T00:50:40.465Z,99470.78
2023-10-29T00:51:44.967Z,99466.16
2023-10-29T00:52:47.749Z,99473.53
2023-10-29T00:53:50.075Z,99474.41
2023-10-29T00:54:52.607Z,99471.81
2023-10-29T00:55:55.837Z,99471.75
2023-10-29T00:56:58.475Z,99464.34
2023-10-29T00:58:01.267Z,99464.34
2023-10-29T00:59:04.167Z,99462.72
2023-10-29T01:00:07.655Z,99468.13
2023-10-29T01:01:09.979Z,99463.13
2023-10-29T01:02:12.703Z,99465.72
2023-10-29T01:03:15.859Z,99461.22
2023-10-29T01:04:18.175Z,99466.69
2023-10-29T01:05:20.606Z,99473.72
2023-10-29T01:06:23.320Z,99464.63
2023-10-29T01:07:26.092Z,99463.75
2023-10-29T01:08:29.191Z,99467.22
2023-10-29T01:09:31.776Z,99463.56
2023-10-29T01:10:34.364Z,99472.09
2023-10-29T01:11:36.676Z,99470.91
2023-10-29T01:12:39.836Z,99470.13
2023-10-29T01:13:42.499Z,99470.28
2023-10-29T01:14:45.618Z,99463.03
2023-10-29T01:15:48.238Z,99463.75
2023-10-29T01:16:50.674Z,99465.00
2023-10-29T01:17:53.248Z,99467.75
2023-10-29T01:18:59.464Z,99458.03
2023-10-29T01:20:04.736Z,99466.69
2023-10-29T01:21:10.014Z,99461.00
2023-10-29T01:22:12.444Z,99466.03
2023-10-29T01:23:15.052Z,99462.38
2023-10-29T01:24:17.249Z,99461.34
2023-10-29T01:25:19.741Z,99465.41
2023-10-29T01:26:22.506Z,99471.44
2023-10-29T01:27:24.843Z,99466.94
2023-10-29T01:28:27.751Z,99460.16
2023-10-29T01:29:31.526Z,99466.91
2023-10-29T01:30:33.829Z,99462.34
2023-10-29T01:31:36.303Z,99464.25
2023-10-29T01:32:39.708Z,99460.63
2023-10-29T01:33:42.170Z,99460.63
2023-10-29T01:34:44.461Z,99452.53
2023-10-29T01:35:47.121Z,99457.78
2023-10-29T01:36:51.297Z,99456.63
2023-10-29T01:37:53.707Z,99457.78
2023-10-29T01:38:56.287Z,99458.53
2023-10-29T01:39:59.139Z,99459.22
2023-10-29T01:41:01.806Z,99453.88
2023-10-29T01:42:04.421Z,99449.97
2023-10-29T01:43:06.857Z,99445.69
2023-10-29T01:44:09.085Z,99450.44
2023-10-29T01:45:15.441Z,99450.88
2023-10-29T01:46:17.794Z,99451.50
2023-10-29T01:47:20.261Z,99450.50
2023-10-29T01:48:25.149Z,99443.84
2023-10-29T01:49:28.176Z,99440.59
2023-10-29T01:50:30.793Z,99434.47
2023-10-29T01:51:33.090Z,99438.31
2023-10-29T01:52:38.584Z,99440.75
2023-10-29T01:53:41.275Z,99427.38
2023-10-29T01:54:45.086Z,99434.63
2023-10-29T01:55:47.750Z,99437.06
2023-10-29T01:56:50.095Z,99442.31
2023-10-29T01:57:52.370Z,99440.25
2023-10-29T01:58:54.998Z,99434.47
2023-10-29T01:59:59.680Z,99429.97
2023-10-29T02:01:02.384Z,99434.91
2023-10-29T02:02:05.423Z,99437.84
2023-10-29T02:03:07.738Z,99439.03
2023-10-29T02:04:13.584Z,99433.28
2023-10-29T02:05:16.028Z,99430.34
2023-10-29T02:06:19.195Z,99431.81
2023-10-29T02:07:21.695Z,99433.94
2023-10-29T02:08:24.191Z,99435.44
2023-10-29T02:09:26.850Z,99432.31
2023-10-29T02:10:29.273Z,99427.47
2023-10-29T02:11:31.748Z,99432.59
2023-10-29T02:12:34.121Z,99420.00
2023-10-29T02:13:36.350Z,99425.41
2023-10-29T02:14:41.430Z,99430.44
2023-10-29T02:15:44.634Z,99432.66
2023-10-29T02:16:47.998Z,99429.13
2023-10-29T02:17:50.782Z,99430.84
2023-10-29T02:18:53.089Z,99439.66
2023-10-29T02:19:56.914Z,99431.81
2023-10-29T02:20:59.220Z,99428.03
2023-10-29T02:22:01.461Z,99430.06
2023-10-29T02:23:03.978Z,99428.09
2023-10-29T02:24:06.512Z,99429.84
2023-10-29T02:25:10.039Z,99436.91
2023-10-29T02:26:12.298Z,99435.00
2023-10-29T02:27:14.569Z,99433.38
2023-10-29T02:28:16.920Z,99424.91
2023-10-29T02:29:19.504Z,99431.28
2023-10-29T02:30:21.901Z,99429.50
2023-10-29T02:31:25.427Z,99428.53
2023-10-29T02:32:27.732Z,99421.53
2023-10-29T02:33:31.742Z,99421.34
2023-10-29T02:34:34.498Z,99424.50
2023-10-29T02:35:36.856Z,99423.53
2023-10-29T02:36:39.274Z,99432.66
2023-10-29T02:37:41.682Z,99425.94
2023-10-29T02:38:44.435Z,99421.63
2023-10-29T02:39:49.399Z,99418.94
2023-10-29T02:40:51.741Z,99419.91
2023-10-29T02:41:54.338Z,99425.34
2023-10-29T02:42:56.857Z,99420.69
2023-10-29T02:43:59.672Z,99419.13
2023-10-29T02:45:02.115Z,99426.13
2023-10-29T02:46:05.068Z,99433.09
2023-10-29T02:47:07.335Z,99422.75
2023-10-29T02:48:09.923Z,99429.03
2023-10-29T02:49:12.373Z,99422.75
2023-10-29T02:50:15.221Z,99423.69
2023-10-29T02:51:17.833Z,99429.72
2023-10-29T02:52:20.787Z,99430.50
2023-10-29T02:53:23.298Z,99437.31
2023-10-29T02:54:26.666Z,99433.44
2023-10-29T02:55:29.069Z,99437.66
2023-10-29T02:56:31.883Z,99440.97
2023-10-29T02:57:34.147Z,99436.47
2023-10-29T02:58:36.664Z,99443.09
2023-10-29T02:59:39.262Z,99442.81
2023-10-29T03:00:42.165Z,99450.06
2023-10-29T03:01:44.955Z,99456.88
2023-10-29T03:02:48.096Z,99449.63
2023-10-29T03:03:50.598Z,99453.78
2023-10-29T03:04:53.167Z,99453.63
2023-10-29T03:05:57.439Z,99459.47
2023-10-29T03:07:00.059Z,99463.59
2023-10-29T03:08:03.167Z,99458.03
2023-10-29T03:09:06.254Z,99467.63
2023-10-29T03:10:08.802Z,99451.84
2023-10-29T03:11:12.994Z,99461.78
2023-10-29T03:12:15.245Z,99461.78
2023-10-29T03:13:17.937Z,99455.22
2023-10-29T03:14:20.148Z,99457.69
2023-10-29T03:15:22.582Z,99456.91
2023-10-29T03:16:24.871Z,99464.69
2023-10-29T03:17:27.691Z,99464.78
2023-10-29T03:18:30.871Z,99459.75
2023-10-29T03:19:33.171Z,99455.84
2023-10-29T03:20:35.840Z,99459.75
2023-10-29T03:21:38.112Z,99458.97
2023-10-29T03:22:40.534Z,99456.38
2023-10-29T03:23:44.171Z,99460.03
2023-10-29T03:24:46.710Z,99455.31
2023-10-29T03:25:49.829Z,99454.47
2023-10-29T03:26:52.848Z,99461.75
2023-10-29T03:27:55.278Z,99457.88
2023-10-29T03:28:57.532Z,99458.66
2023-10-29T03:30:01.077Z,99455.28
2023-10-29T03:31:03.630Z,99459.59
2023-10-29T03:32:06.149Z,99457.03
2023-10-29T03:33:08.778Z,99455.13
2023-10-29T03:34:12.457Z,99454.06
2023-10-29T03:35:14.905Z,99449.56
2023-10-29T03:36:17.329Z,99457.53
2023-10-29T03:37:19.668Z,99455.97
2023-10-29T03:38:22.310Z,99456.13
2023-10-29T03:39:24.667Z,99451.75
2023-10-29T03:40:27.085Z,99451.69
2023-10-29T03:41:30.875Z,99451.69
2023-10-29T03:42:33.896Z,99453.31
2023-10-29T03:43:36.117Z,99443.72
2023-10-29T03:44:38.340Z,99447.25
2023-10-29T03:45:40.881Z,99448.09
2023-10-29T03:46:43.462Z,99458.56
2023-10-29T03:47:46.541Z,99453.38
2023-10-29T03:48:48.988Z,99454.44
2023-10-29T03:49:51.517Z,99450.63
2023-10-29T03:50:54.025Z,99453.81
2023-10-29T03:51:56.285Z,99457.75
2023-10-29T03:52:58.540Z,99446.75
2023-10-29T03:54:00.875Z,99451.44
2023-10-29T03:55:03.170Z,99447.91
2023-10-29T03:56:06.143Z,99441.84
2023-10-29T03:57:08.762Z,99443.69
2023-10-29T03:58:11.068Z,99439.25
2023-10-29T03:59:13.314Z,99438.31
2023-10-29T04:00:15.688Z,99435.81
2023-10-29T04:01:18.230Z,99430.00
2023-10-29T04:02:20.492Z,99428.31
2023-10-29T04:03:22.723Z,99427.34
2023-10-29T04:04:25.203Z,99427.41
2023-10-29T04:05:28.162Z,99418.53
2023-10-29T04:06:31.919Z,99410.34
2023-10-29T04:07:34.164Z,99403.84
2023-10-29T04:08:36.929Z,99394.34
2023-10-29T04:09:39.380Z,99405.84
2023-10-29T04:10:41.597Z,99406.53
2023-10-29T04:11:44.912Z,99400.97
2023-10-29T04:12:47.129Z,99399.34
2023-10-29T04:13:49.365Z,99383.28
2023-10-29T04:14:51.797Z,99385.19
2023-10-29T04:15:54.076Z,99378.38
2023-10-29T04:16:56.534Z,99374.66
2023-10-29T04:17:58.918Z,99381.59
2023-10-29T04:19:01.792Z,99374.94
2023-10-29T04:20:07.051Z,99375.69
2023-10-29T04:21:09.363Z,99370.44
2023-10-29T04:22:11.782Z,99368.53
2023-10-29T04:23:14.029Z,99370.06
2023-10-29T04:24:16.232Z,99366.44
2023-10-29T04:25:18.747Z,99363.00
2023-10-29T04:26:21.062Z,99363.75
2023-10-29T04:27:23.546Z,99359.34
2023-10-29T04:28:26.153Z,99361.72
2023-10-29T04:29:28.497Z,99363.03
2023-10-29T04:30:30.797Z,99365.63
2023-10-29T04:31:33.323Z,99358.25
2023-10-29T04:32:35.844Z,99369.84
2023-10-29T04:34:41.511Z,99358.94
2023-10-29T04:35:43.755Z,99358.19
2023-10-29T04:36:49.550Z,99353.78
2023-10-29T04:37:52.255Z,99353.78
2023-10-29T04:38:54.613Z,99359.72
2023-10-29T04:39:57.584Z,99356.78
2023-10-29T04:40:59.899Z,99358.50
2023-10-29T04:42:02.930Z,99362.41
2023-10-29T04:43:05.228Z,99363.94
2023-10-29T04:44:07.683Z,99361.84
2023-10-29T04:45:12.202Z,99355.81
2023-10-29T04:46:14.641Z,99356.31
2023-10-29T04:47:18.136Z,99356.31
2023-10-29T04:48:20.552Z,99353.06
2023-10-29T04:49:23.048Z,99353.34
2023-10-29T04:50:25.289Z,99347.31
2023-10-29T04:51:28.471Z,99348.75
2023-10-29T04:52:30.906Z,99337.00
2023-10-29T04:53:36.626Z,99339.84
2023-10-29T04:54:39.086Z,99341.22
2023-10-29T04:55:41.405Z,99340.44
2023-10-29T04:56:43.838Z,99337.47
2023-10-29T04:57:46.272Z,99336.69
2023-10-29T04:58:48.763Z,99338.06
2023-10-29T04:59:51.322Z,99343.13
2023-10-29T05:00:54.109Z,99335.94
2023-10-29T05:01:56.636Z,99334.25
2023-10-29T05:02:59.106Z,99337.19
2023-10-29T05:04:01.566Z,99329.16
2023-10-29T05:05:04.977Z,99336.72
2023-10-29T05:06:07.260Z,99333.88
2023-10-29T05:07:09.708Z,99327.44
2023-10-29T05:08:12.145Z,99338.16
2023-10-29T05:09:14.375Z,99333.56
2023-10-29T05:10:16.778Z,99335.38
2023-10-29T05:11:19.090Z,99329.81
2023-10-29T05:12:21.516Z,99331.06
2023-10-29T05:13:23.925Z,99329.63
2023-10-29T05:14:26.268Z,99332.03
2023-10-29T05:15:28.814Z,99329.81
2023-10-29T05:16:31.098Z,99324.28
2023-10-29T05:17:33.382Z,99325.16
2023-10-29T05:18:36.083Z,99323.53
2023-10-29T05:19:40.201Z,99326.88
2023-10-29T05:20:42.695Z,99327.06
2023-10-29T05:21:45.557Z,99324.00
2023-10-29T05:22:47.959Z,99325.38
2023-10-29T05:23:50.435Z,99326.91
2023-10-29T05:24:52.663Z,99325.38
2023-10-29T05:25:55.470Z,99327.28
2023-10-29T05:26:57.912Z,99321.16
2023-10-29T05:28:00.441Z,99319.13
2023-10-29T05:29:02.819Z,99322.84
2023-10-29T05:30:08.895Z,99326.38
2023-10-29T05:31:11.420Z,99321.31
2023-10-29T05:32:13.847Z,99329.06
2023-10-29T05:33:16.419Z,99324.38
2023-10-29T05:34:18.851Z,99314.66
2023-10-29T05:35:22.356Z,99316.94
2023-10-29T05:36:24.793Z,99321.72
2023-10-29T05:37:27.266Z,99320.56
2023-10-29T05:38:29.715Z,99311.50
2023-10-29T05:39:32.089Z,99312.06
2023-10-29T05:40:34.752Z,99309.75
2023-10-29T05:41:37.120Z,99311.97
2023-10-29T05:42:39.635Z,99309.47
2023-10-29T05:43:42.288Z,99315.41
2023-10-29T05:44:44.572Z,99313.50
2023-10-29T05:45:47.215Z,99310.91
2023-10-29T05:46:49.734Z,99309.28
2023-10-29T05:47:52.021Z,99316.94
2023-10-29T05:48:54.588Z,99310.44
2023-10-29T05:49:56.833Z,99314.94
2023-10-29T05:50:59.160Z,99312.25
2023-10-29T05:52:01.692Z,99311.59
2023-10-29T05:53:03.962Z,99313.78
2023-10-29T05:54:06.536Z,99312.13
2023-10-29T05:55:09.029Z,99306.53
2023-10-29T05:56:11.467Z,99305.63
2023-10-29T05:57:14.077Z,99306.41
2023-10-29T05:58:16.339Z,99309.19
2023-10-29T05:59:20.073Z,99313.50
2023-10-29T06:00:22.834Z,99314.44
2023-10-29T06:01:25.101Z,99305.53
2023-10-29T06:02:27.942Z,99307.06
2023-10-29T06:03:30.374Z,99314.66
2023-10-29T06:04:33.028Z,99311.91
2023-10-29T06:05:35.382Z,99310.84
2023-10-29T06:06:37.616Z,99307.84
2023-10-29T06:07:45.162Z,99305.69
2023-10-29T06:08:47.801Z,99303.00
2023-10-29T06:09:50.130Z,99307.84
2023-10-29T06:10:52.409Z,99299.44
2023-10-29T06:11:54.677Z,99299.44
2023-10-29T06:12:57.619Z,99297.44
2023-10-29T06:14:00.187Z,99304.31
2023-10-29T06:15:02.708Z,99297.72
2023-10-29T06:16:09.647Z,99301.09
2023-10-29T06:17:25.705Z,99302.69
2023-10-29T06:18:29.510Z,99312.19
2023-10-29T06:19:33.637Z,99315.53
2023-10-29T06:20:35.896Z,99307.75
2023-10-29T06:21:38.261Z,99309.41
2023-10-29T06:22:40.491Z,99305.75
2023-10-29T06:23:43.225Z,99304.69
2023-10-29T06:24:45.880Z,99307.28
2023-10-29T06:25:48.322Z,99309.00
2023-10-29T06:26:50.509Z,99297.00
2023-10-29T06:27:53.085Z,99300.44
2023-10-29T06:28:55.273Z,99308.63
2023-10-29T06:29:57.864Z,99304.09
2023-10-29T06:31:00.680Z,99307.53
2023-10-29T06:32:03.152Z,99301.22
2023-10-29T06:33:05.633Z,99300.25
2023-10-29T06:34:08.258Z,99297.00
2023-10-29T06:35:10.596Z,99305.44
2023-10-29T06:36:13.021Z,99307.53
2023-10-29T06:37:15.595Z,99306.06
2023-10-29T06:38:17.987Z,99311.34
2023-10-29T06:39:20.390Z,99307.50
2023-10-29T06:40:22.822Z,99308.34
2023-10-29T06:41:25.242Z,99302.38
2023-10-29T06:42:27.552Z,99297.84
2023-10-29T06:43:29.965Z,99308.28
2023-10-29T06:44:32.401Z,99304.06
2023-10-29T06:45:34.745Z,99301.19
2023-10-29T06:46:37.186Z,99303.13
2023-10-29T06:47:39.522Z,99312.69
2023-10-29T06:48:43.095Z,99310.84
2023-10-29T06:49:45.600Z,99303.66
2023-10-29T06:50:47.863Z,99302.25
2023-10-29T06:53:19.234Z,99299.94
2023-10-29T06:54:21.676Z,99304.22
2023-10-29T06:55:27.226Z,99298.78
2023-10-29T06:56:29.564Z,99293.41
2023-10-29T06:57:31.965Z,99288.50
2023-10-29T06:58:34.508Z,99291.00
2023-10-29T06:59:36.711Z,99286.13
2023-10-29T07:00:39.229Z,99286.97
2023-10-29T07:01:41.494Z,99291.09
2023-10-29T07:02:43.865Z,99282.56
2023-10-29T07:03:46.953Z,99279.53
2023-10-29T07:04:50.176Z,99281.44
2023-10-29T07:05:52.613Z,99280.19
2023-10-29T07:06:55.092Z,99271.28
2023-10-29T07:07:57.447Z,99274.72
2023-10-29T07:09:00.578Z,99273.75
2023-10-29T07:10:05.402Z,99269.28
2023-10-29T07:11:07.739Z,99275.19
2023-10-29T07:12:10.139Z,99273.16
2023-10-29T07:13:12.723Z,99267.03
2023-10-29T07:14:15.102Z,99268.47
2023-10-29T07:15:17.843Z,99259.16
2023-10-29T07:16:20.110Z,99264.94
2023-10-29T07:17:23.776Z,99265.72
2023-10-29T07:18:26.434Z,99269.25
2023-10-29T07:19:28.713Z,99272.66
2023-10-29T07:20:31.375Z,99276.19
2023-10-29T07:21:33.600Z,99274.34
2023-10-29T07:22:36.789Z,99274.50
2023-10-29T07:23:39.009Z,99289.59
2023-10-29T07:24:41.223Z,99287.69
2023-10-29T07:25:43.832Z,99293.72
2023-10-29T07:26:46.092Z,99292.72
2023-10-29T07:27:48.402Z,99277.03
2023-10-29T07:28:50.604Z,99276.09
2023-10-29T07:29:52.894Z,99263.34
2023-10-29T07:30:56.862Z,99259.69
2023-10-29T07:31:59.097Z,99256.75
2023-10-29T07:33:01.596Z,99252.91
2023-10-29T07:34:04.008Z,99243.38
2023-10-29T07:35:06.371Z,99238.97
2023-10-29T07:36:09.376Z,99236.69
2023-10-29T07:37:13.492Z,99230.25
2023-10-29T07:38:15.983Z,99234.44
2023-10-29T07:39:18.369Z,99232.13
2023-10-29T07:40:20.639Z,99229.78
2023-10-29T07:41:23.631Z,99231.59
2023-10-29T07:42:26.101Z,99226.53
2023-10-29T07:43:28.814Z,99240.63
2023-10-29T07:44:31.057Z,99234.59
2023-10-29T07:45:33.352Z,99234.28
2023-10-29T07:46:36.218Z,99229.56
2023-10-29T07:47:38.628Z,99228.38
2023-10-29T07:48:41.548Z,99234.50
2023-10-29T07:49:43.787Z,99241.09
2023-10-29T07:50:52.311Z,99246.31
2023-10-29T07:51:54.904Z,99240.09
2023-10-29T07:52:57.234Z,99246.97
2023-10-29T07:54:01.081Z,99246.66
2023-10-29T07:55:03.852Z,99245.69
2023-10-29T07:56:14.576Z,99250.22
2023-10-29T07:57:16.822Z,99251.81
2023-10-29T07:58:19.785Z,99261.81
2023-10-29T07:59:22.492Z,99261.81
2023-10-29T08:00:24.700Z,99263.13
2023-10-29T08:01:27.403Z,99261.84
2023-10-29T08:02:31.166Z,99267.13
2023-10-29T08:03:33.532Z,99267.88
2023-10-29T08:04:36.063Z,99259.91
2023-10-29T08:05:38.337Z,99260.88
2023-10-29T08:06:40.983Z,99262.81
2023-10-29T08:07:43.226Z,99260.03
2023-10-29T08:08:45.490Z,99268.63
2023-10-29T08:09:47.956Z,99271.09
2023-10-29T08:10:50.274Z,99264.63
2023-10-29T08:11:53.007Z,99261.75
2023-10-29T08:12:55.228Z,99265.41
2023-10-29T08:13:58.077Z,99261.41
2023-10-29T08:15:00.557Z,99265.38
2023-10-29T08:16:04.016Z,99264.94
2023-10-29T08:17:06.861Z,99257.44
2023-10-29T08:18:09.205Z,99261.19
2023-10-29T08:19:11.831Z,99266.69
2023-10-29T08:20:14.285Z,99270.00
2023-10-29T08:21:16.575Z,99270.84
2023-10-29T08:22:19.457Z,99271.19
2023-10-29T08:23:21.664Z,99268.16
2023-10-29T08:24:23.892Z,99274.63
2023-10-29T08:25:26.299Z,99274.75
2023-10-29T08:26:30.673Z,99278.28
2023-10-29T08:27:33.127Z,99285.03
2023-10-29T08:28:37.106Z,99280.31
2023-10-29T08:29:41.175Z,99278.16
2023-10-29T08:30:43.695Z,99277.41
2023-10-29T08:31:45.956Z,99275.28
2023-10-29T08:32:48.439Z,99273.56
2023-10-29T08:33:50.719Z,99270.88
2023-10-29T08:34:52.974Z,99277.53
2023-10-29T08:35:55.513Z,99284.72
2023-10-29T08:36:58.236Z,99277.09
2023-10-29T08:38:00.487Z,99279.78
2023-10-29T08:39:03.152Z,99271.72
2023-10-29T08:40:06.285Z,99272.47
2023-10-29T08:41:18.262Z,99277.84
2023-10-29T08:42:20.662Z,99282.69
2023-10-29T08:43:22.874Z,99279.66
2023-10-29T08:44:25.210Z,99276.25
2023-10-29T08:45:41.017Z,99272.47
2023-10-29T08:46:44.676Z,99272.59
2023-10-29T08:47:47.146Z,99276.34
2023-10-29T08:48:49.428Z,99278.59
2023-10-29T08:49:51.929Z,99271.31
2023-10-29T08:50:54.333Z,99279.13
2023-10-29T08:51:56.604Z,99270.41
2023-10-29T08:52:59.522Z,99287.19
2023-10-29T08:54:03.943Z,99278.78
2023-10-29T08:55:08.044Z,99280.22
2023-10-29T08:56:10.464Z,99282.66
2023-10-29T08:57:12.871Z,99278.03
2023-10-29T08:58:15.960Z,99281.81
2023-10-29T08:59:18.275Z,99276.53
2023-10-29T09:00:20.490Z,99273.09
2023-10-29T09:01:33.635Z,99285.50
2023-10-29T09:02:35.973Z,99278.19
2023-10-29T09:03:38.494Z,99272.56
2023-10-29T09:04:40.930Z,99273.22
2023-10-29T09:05:44.219Z,99271.06
2023-10-29T09:06:46.850Z,99273.22
2023-10-29T09:07:49.271Z,99269.78
2023-10-29T09:08:52.261Z,99273.72
2023-10-29T09:09:55.175Z,99262.97
2023-10-29T09:10:57.420Z,99267.69
2023-10-29T09:11:59.783Z,99259.63
2023-10-29T09:13:02.219Z,99259.53
2023-10-29T09:14:04.845Z,99268.34
2023-10-29T09:15:08.105Z,99267.34
2023-10-29T09:16:10.811Z,99262.09
2023-10-29T09:17:13.929Z,99265.53
2023-10-29T09:18:16.510Z,99264.44
2023-10-29T09:19:18.833Z,99261.53
2023-10-29T09:20:21.068Z,99261.41
2023-10-29T09:21:23.499Z,99265.41
2023-10-29T09:22:25.781Z,99256.72
2023-10-29T09:23:31.112Z,99250.16
2023-10-29T09:24:33.398Z,99252.16
2023-10-29T09:25:35.617Z,99245.81
2023-10-29T09:26:38.078Z,99238.16
2023-10-29T09:27:42.224Z,99241.81
2023-10-29T09:28:44.742Z,99236.91
2023-10-29T09:29:47.675Z,99236.09
2023-10-29T09:30:50.129Z,99241.88
2023-10-29T09:31:53.404Z,99239.34
2023-10-29T09:32:58.128Z,99247.59
2023-10-29T09:34:02.385Z,99248.97
2023-10-29T09:35:05.903Z,99243.38
2023-10-29T09:36:09.122Z,99252.25
2023-10-29T09:37:11.620Z,99246.28
2023-10-29T09:38:14.120Z,99242.16
2023-10-29T09:39:16.361Z,99240.81
2023-10-29T09:40:20.070Z,99246.34
2023-10-29T09:41:22.319Z,99233.47
2023-10-29T09:42:30.254Z,99238.09
2023-10-29T09:43:39.921Z,99235.28
2023-10-29T09:44:43.640Z,99231.13
2023-10-29T09:45:48.864Z,99238.00
2023-10-29T09:46:58.275Z,99241.91
2023-10-29T09:48:00.854Z,99250.63
2023-10-29T09:49:05.479Z,99250.09
2023-10-29T09:50:09.614Z,99242.91
2023-10-29T09:51:11.959Z,99249.16
2023-10-29T09:52:15.010Z,99246.13
2023-10-29T09:53:19.253Z,99246.25
2023-10-29T09:54:21.821Z,99242.44
2023-10-29T09:55:24.393Z,99250.28
2023-10-29T09:56:28.060Z,99248.44
2023-10-29T09:57:31.260Z,99244.28
2023-10-29T09:58:35.211Z,99240.09
2023-10-29T09:59:37.757Z,99246.97
2023-10-29T10:00:40.417Z,99251.03
2023-10-29T10:01:57.577Z,99250.56
2023-10-29T10:03:01.604Z,99252.88
2023-10-29T10:04:04.607Z,99258.53
2023-10-29T10:05:11.151Z,99260.50
2023-10-29T10:06:19.364Z,99263.84
2023-10-29T10:07:23.713Z,99269.69
2023-10-29T10:08:27.592Z,99275.34
2023-10-29T10:09:56.633Z,99280.72
2023-10-29T10:10:59.854Z,99281.00
2023-10-29T10:12:05.900Z,99274.72
2023-10-29T10:13:09.901Z,99272.88
2023-10-29T10:14:28.118Z,99269.97
2023-10-29T10:15:30.327Z,99258.91
2023-10-29T10:16:33.082Z,99255.50
2023-10-29T10:17:35.384Z,99251.69
2023-10-29T10:18:51.975Z,99242.03
2023-10-29T10:20:07.894Z,99238.59
2023-10-29T10:21:10.218Z,99238.69
2023-10-29T10:22:12.998Z,99231.00
2023-10-29T10:23:15.415Z,99224.97
2023-10-29T10:24:18.318Z,99229.75
2023-10-29T10:25:24.811Z,99218.47
2023-10-29T10:26:28.191Z,99222.75
2023-10-29T10:27:31.128Z,99227.56
2023-10-29T10:28:33.937Z,99224.50
2023-10-29T10:29:36.773Z,99228.03
2023-10-29T10:30:40.131Z,99223.16
2023-10-29T10:31:42.746Z,99228.66
2023-10-29T10:32:46.321Z,99226.44
2023-10-29T10:33:50.321Z,99232.59
2023-10-29T10:34:53.396Z,99224.13
2023-10-29T10:35:56.366Z,99230.75
2023-10-29T10:37:01.781Z,99226.06
2023-10-29T10:38:04.620Z,99230.63
2023-10-29T10:39:07.140Z,99231.00
2023-10-29T10:40:27.619Z,99237.22
2023-10-29T10:41:46.394Z,99235.63
2023-10-29T10:42:55.426Z,99231.97
2023-10-29T10:44:27.812Z,99231.84
2023-10-29T10:45:32.830Z,99239.31
2023-10-29T10:46:37.899Z,99236.38
2023-10-29T10:47:40.371Z,99239.81
2023-10-29T10:48:43.505Z,99245.19
2023-10-29T10:49:47.531Z,99244.47
2023-10-29T10:50:54.571Z,99241.88
2023-10-29T10:51:59.278Z,99240.88
2023-10-29T10:53:02.150Z,99243.09
2023-10-29T10:54:05.945Z,99256.31
2023-10-29T10:55:17.841Z,99264.16
2023-10-29T10:56:36.989Z,99252.25
2023-10-29T10:57:39.547Z,99254.09
2023-10-29T10:58:43.415Z,99247.75
2023-10-29T10:59:46.160Z,99254.34
2023-10-29T11:00:51.143Z,99253.47
2023-10-29T11:01:53.459Z,99251.25
2023-10-29T11:02:58.440Z,99249.94
2023-10-29T11:04:03.170Z,99254.56
2023-10-29T11:05:07.065Z,99244.78
2023-10-29T11:06:12.308Z,99248.94
2023-10-29T11:07:14.645Z,99254.53
2023-10-29T11:08:17.787Z,99269.38
2023-10-29T11:09:20.974Z,99264.72
2023-10-29T11:10:24.464Z,99265.25
2023-10-29T11:11:34.862Z,99266.84
2023-10-29T11:12:37.831Z,99265.47
2023-10-29T11:13:40.373Z,99265.59
2023-10-29T11:15:22.054Z,99270.00
2023-10-29T11:16:26.387Z,99257.38
2023-10-29T11:17:56.878Z,99262.19
2023-10-29T11:19:01.853Z,99268.78
2023-10-29T11:20:04.432Z,99276.97
2023-10-29T11:21:07.103Z,99273.81
2023-10-29T11:22:23.346Z,99272.84
2023-10-29T11:23:30.116Z,99274.53
2023-10-29T11:24:32.564Z,99276.13
2023-10-29T11:25:35.546Z,99285.06
2023-10-29T11:26:38.019Z,99276.66
2023-10-29T11:27:44.600Z,99278.97
2023-10-29T11:28:47.063Z,99277.38
2023-10-29T11:29:49.532Z,99268.56
2023-10-29T11:31:16.697Z,99274.81
2023-10-29T11:32:27.020Z,99275.31
2023-10-29T11:33:29.372Z,99264.78
2023-10-29T11:34:31.649Z,99262.09
2023-10-29T11:35:35.053Z,99277.41
2023-10-29T11:36:43.101Z,99267.50
2023-10-29T11:37:45.476Z,99273.88
2023-10-29T11:38:47.824Z,99276.47
2023-10-29T11:39:50.093Z,99280.53
2023-10-29T11:40:52.538Z,99276.81
2023-10-29T11:41:55.744Z,99274.13
2023-10-29T11:43:14.840Z,99274.97
2023-10-29T11:44:19.986Z,99279.94
2023-10-29T11:45:33.043Z,99273.78
2023-10-29T11:47:00.192Z,99267.66
2023-10-29T11:48:09.969Z,99266.31
2023-10-29T11:49:12.308Z,99261.03
2023-10-29T11:50:14.737Z,99268.16
2023-10-29T11:51:18.934Z,99257.00
2023-10-29T11:52:21.348Z,99263.63
2023-10-29T11:53:27.369Z,99260.53
2023-10-29T11:54:30.709Z,99260.19
2023-10-29T11:56:07.183Z,99268.75
2023-10-29T11:57:10.565Z,99258.97
2023-10-29T11:58:12.782Z,99259.34
2023-10-29T11:59:15.087Z,99253.44
2023-10-29T12:00:17.471Z,99256.03
2023-10-29T12:01:20.602Z,99262.63
2023-10-29T12:02:23.542Z,99265.09
2023-10-29T12:03:27.198Z,99268.13
2023-10-29T12:04:31.269Z,99266.78
2023-10-29T12:05:33.713Z,99266.44
2023-10-29T12:06:45.540Z,99264.97
2023-10-29T12:07:47.980Z,99265.81
2023-10-29T12:08:50.334Z,99266.94
2023-10-29T12:10:07.272Z,99265.72
2023-10-29T12:11:09.653Z,99270.59
2023-10-29T12:12:12.714Z,99276.38
2023-10-29T12:13:18.236Z,99272.84
2023-10-29T12:14:48.212Z,99278.22
2023-10-29T12:15:58.656Z,99261.53
2023-10-29T12:17:01.761Z,99260.66
2023-10-29T12:18:04.535Z,99263.25
2023-10-29T12:19:07.884Z,99264.25
2023-10-29T12:20:21.590Z,99265.31
2023-10-29T12:21:23.836Z,99268.53
2023-10-29T12:22:31.970Z,99270.09
2023-10-29T12:23:36.621Z,99268.63
2023-10-29T12:24:39.143Z,99272.19
2023-10-29T12:25:42.325Z,99273.66
2023-10-29T12:26:44.606Z,99272.06
2023-10-29T12:27:47.178Z,99279.28
2023-10-29T12:28:50.726Z,99276.72
2023-10-29T12:29:53.929Z,99275.50